Time;durP1;ratioP1;P1;durP2;ratioP2;P2;SDS_P1;SDS_P2;PMS_P1;PMS_P2;Temp;Humidity;BMP_temperature;BMP_pressure;BME280_temperature;BME280_humidity;BME280_pressure;Samples;Min_cycle;Max_cycle;Signal;HPM_P1;HPM_P2
2021/07/23 00:01:42;;;;;;;10.40;7.70;;;17.50;99.90;;;;;;5015455;28;20178;-65
2021/07/23 00:04:08;;;;;;;8.43;6.50;;;17.50;99.90;;;;;;5015489;28;20644;-65
2021/07/23 00:06:34;;;;;;;11.50;6.87;;;17.50;99.90;;;;;;5015356;28;20423;-67
2021/07/23 00:09:00;;;;;;;7.63;6.23;;;17.40;99.90;;;;;;5014386;28;20285;-65
2021/07/23 00:11:25;;;;;;;8.53;6.67;;;17.40;99.90;;;;;;5026718;28;20170;-66
2021/07/23 00:13:51;;;;;;;7.37;6.53;;;17.30;99.90;;;;;;5015302;28;20261;-65
2021/07/23 00:16:19;;;;;;;8.40;6.30;;;17.30;99.90;;;;;;5015486;28;20600;-65
2021/07/23 00:18:44;;;;;;;7.83;7.03;;;17.30;99.90;;;;;;5013589;28;20581;-66
2021/07/23 00:21:10;;;;;;;7.73;6.90;;;17.20;99.90;;;;;;5015251;28;20408;-65
2021/07/23 00:23:36;;;;;;;7.30;6.30;;;17.20;99.90;;;;;;5015216;28;20206;-66
2021/07/23 00:26:01;;;;;;;9.53;7.47;;;17.20;99.90;;;;;;5016074;28;20195;-66
2021/07/23 00:28:27;;;;;;;8.33;6.83;;;17.20;99.90;;;;;;5014091;28;20191;-64
2021/07/23 00:30:53;;;;;;;11.73;7.63;;;17.20;99.90;;;;;;5015184;28;20186;-64
2021/07/23 00:33:18;;;;;;;9.30;6.77;;;17.20;99.90;;;;;;5014987;28;20177;-66
2021/07/23 00:35:44;;;;;;;8.17;6.90;;;17.20;99.90;;;;;;5015187;28;20181;-65
2021/07/23 00:38:11;;;;;;;7.70;6.23;;;17.10;99.90;;;;;;5014391;28;20282;-66
2021/07/23 00:40:36;;;;;;;8.43;6.60;;;17.10;99.90;;;;;;5029081;28;20201;-65
2021/07/23 00:43:02;;;;;;;9.03;5.93;;;17.00;99.90;;;;;;5034963;28;20397;-67
2021/07/23 00:45:29;;;;;;;8.10;6.80;;;17.00;99.90;;;;;;5033262;28;20233;-65
2021/07/23 00:48:01;;;;;;;10.87;7.83;;;17.00;99.90;;;;;;5034113;28;20437;-65
2021/07/23 00:50:27;;;;;;;7.20;6.40;;;16.90;99.90;;;;;;5034648;28;20249;-65
2021/07/23 00:52:53;;;;;;;11.20;6.93;;;16.90;99.90;;;;;;5034612;28;20427;-65
2021/07/23 00:55:18;;;;;;;7.30;6.60;;;16.90;99.90;;;;;;5020182;28;20426;-65
2021/07/23 00:57:45;;;;;;;8.17;6.27;;;16.90;99.90;;;;;;5022344;28;20174;-65
2021/07/23 01:00:11;;;;;;;10.70;7.90;;;16.80;99.90;;;;;;5034432;28;20236;-65
2021/07/23 01:02:37;;;;;;;8.30;6.73;;;16.80;99.90;;;;;;5033014;28;20444;-65
2021/07/23 01:05:04;;;;;;;7.80;6.20;;;16.80;99.90;;;;;;5034125;28;20401;-65
2021/07/23 01:07:30;;;;;;;8.70;6.80;;;16.80;99.90;;;;;;5019849;28;20422;-66
2021/07/23 01:09:59;;;;;;;7.23;5.73;;;16.80;99.90;;;;;;5014527;28;20406;-66
2021/07/23 01:12:26;;;;;;;6.77;6.03;;;16.80;99.90;;;;;;5014535;28;20397;-65
2021/07/23 01:14:51;;;;;;;11.10;7.00;;;16.80;99.90;;;;;;5014146;28;20915;-66
2021/07/23 01:17:17;;;;;;;7.80;6.00;;;16.80;99.90;;;;;;5013964;28;20528;-66
2021/07/23 01:20:03;;;;;;;10.80;6.57;;;16.80;99.90;;;;;;5014096;28;20214;-66
2021/07/23 01:22:30;;;;;;;7.37;6.10;;;16.80;99.90;;;;;;5014204;28;20189;-65
2021/07/23 01:24:56;;;;;;;8.50;7.40;;;16.70;99.90;;;;;;5014130;28;20881;-65
2021/07/23 01:27:27;;;;;;;9.07;6.77;;;16.70;99.90;;;;;;5013680;28;20919;-66
2021/07/23 01:30:07;;;;;;;8.17;7.37;;;16.70;99.90;;;;;;5013946;28;20437;-65
2021/07/23 01:32:33;;;;;;;10.60;7.30;;;16.70;99.90;;;;;;5014108;28;20444;-65
2021/07/23 01:34:58;;;;;;;8.97;7.50;;;16.70;99.90;;;;;;5013998;28;20421;-66
2021/07/23 01:37:25;;;;;;;9.97;7.37;;;16.70;99.90;;;;;;5030049;28;20420;-66
2021/07/23 01:39:53;;;;;;;10.67;6.83;;;16.70;99.90;;;;;;5032681;28;20725;-65
2021/07/23 01:42:18;;;;;;;7.60;5.80;;;16.70;99.90;;;;;;5033755;28;20405;-65
2021/07/23 01:44:44;;;;;;;8.50;6.80;;;16.70;99.90;;;;;;5033678;28;20405;-65
2021/07/23 01:47:10;;;;;;;10.53;6.87;;;16.60;99.90;;;;;;5033214;28;20261;-65
2021/07/23 01:49:35;;;;;;;8.83;6.57;;;16.60;99.90;;;;;;5033588;28;20248;-65
2021/07/23 01:52:02;;;;;;;7.30;6.43;;;16.60;99.90;;;;;;5017378;28;20186;-65
2021/07/23 01:54:28;;;;;;;8.13;6.43;;;16.60;99.90;;;;;;5013906;28;20564;-66
2021/07/23 01:56:54;;;;;;;8.47;7.67;;;16.60;99.90;;;;;;5013635;28;20421;-65
2021/07/23 01:59:20;;;;;;;6.83;6.13;;;16.50;99.90;;;;;;5013561;28;20209;-65
2021/07/23 02:01:45;;;;;;;8.67;6.80;;;16.50;99.90;;;;;;5013920;28;20177;-65
2021/07/23 02:04:11;;;;;;;7.53;6.60;;;16.50;99.90;;;;;;5014716;28;20159;-65
2021/07/23 02:06:36;;;;;;;7.20;5.90;;;16.50;99.90;;;;;;5013508;28;20163;-66
2021/07/23 02:09:02;;;;;;;7.43;6.63;;;16.40;99.90;;;;;;5013468;28;20195;-65
2021/07/23 02:11:30;;;;;;;9.37;7.77;;;16.40;99.90;;;;;;5013674;28;20174;-66
2021/07/23 02:13:57;;;;;;;7.40;6.30;;;16.30;99.90;;;;;;5013704;28;20441;-66
2021/07/23 02:16:23;;;;;;;8.83;6.93;;;16.30;99.90;;;;;;5013649;28;20512;-65
2021/07/23 02:18:49;;;;;;;8.60;7.53;;;16.30;99.90;;;;;;5012986;28;20541;-65
2021/07/23 02:21:15;;;;;;;8.17;6.37;;;16.30;99.90;;;;;;4993730;28;20457;-65
2021/07/23 02:23:41;;;;;;;7.80;6.10;;;16.30;99.90;;;;;;4993815;28;20790;-65
2021/07/23 02:26:16;;;;;;;7.00;5.87;;;16.20;99.90;;;;;;4994000;28;20254;-66
2021/07/23 02:28:42;;;;;;;9.53;7.40;;;16.20;99.90;;;;;;5016311;28;20201;-66
2021/07/23 02:31:07;;;;;;;7.80;6.57;;;16.20;99.90;;;;;;5033358;28;20415;-65
2021/07/23 02:33:33;;;;;;;7.17;6.43;;;16.20;99.90;;;;;;5033215;28;20173;-66
2021/07/23 02:35:58;;;;;;;10.50;7.10;;;16.20;99.90;;;;;;5033389;28;20570;-65
2021/07/23 02:38:24;;;;;;;8.83;7.73;;;16.20;99.90;;;;;;5032637;28;20563;-66
2021/07/23 02:40:50;;;;;;;11.13;7.67;;;16.10;99.90;;;;;;5033399;28;20174;-66
2021/07/23 02:43:15;;;;;;;7.83;6.20;;;16.10;99.90;;;;;;5023156;28;20186;-66
2021/07/23 02:45:41;;;;;;;8.67;7.67;;;16.00;99.90;;;;;;5013342;28;20174;-65
2021/07/23 02:48:07;;;;;;;10.20;7.17;;;16.10;99.90;;;;;;5012736;28;20560;-66
2021/07/23 02:50:33;;;;;;;11.47;7.40;;;16.00;99.90;;;;;;5014878;28;20541;-66
2021/07/23 02:52:59;;;;;;;9.10;6.43;;;16.00;99.90;;;;;;5016999;28;20413;-66
2021/07/23 02:55:24;;;;;;;9.60;7.73;;;16.00;99.90;;;;;;5016843;28;20687;-66
2021/07/23 02:57:50;;;;;;;10.63;8.03;;;16.00;99.90;;;;;;5017210;28;20204;-65
2021/07/23 03:00:16;;;;;;;6.70;6.00;;;15.90;99.90;;;;;;5016879;28;20657;-65
2021/07/23 03:02:41;;;;;;;7.00;6.30;;;15.90;99.90;;;;;;5016756;28;20696;-65
2021/07/23 03:05:07;;;;;;;8.70;6.40;;;15.90;99.90;;;;;;5016611;28;20452;-65
2021/07/23 03:07:33;;;;;;;9.10;6.90;;;15.90;99.90;;;;;;5016327;28;20245;-66
2021/07/23 03:09:58;;;;;;;7.60;6.63;;;15.80;99.90;;;;;;5016826;28;20432;-66
2021/07/23 03:12:24;;;;;;;8.83;7.80;;;15.80;99.90;;;;;;5023339;28;20551;-65
2021/07/23 03:14:50;;;;;;;8.37;6.70;;;15.80;99.90;;;;;;5036434;28;20200;-65
2021/07/23 03:17:15;;;;;;;8.57;6.50;;;15.70;99.90;;;;;;5035929;28;20176;-66
2021/07/23 03:19:41;;;;;;;9.73;7.77;;;15.70;99.90;;;;;;5034956;28;20209;-65
2021/07/23 03:22:06;;;;;;;10.20;6.93;;;15.70;99.90;;;;;;5036681;28;20554;-65
2021/07/23 03:24:35;;;;;;;7.93;6.97;;;15.70;99.90;;;;;;5036048;28;20176;-65
2021/07/23 03:27:01;;;;;;;10.53;7.40;;;15.70;99.90;;;;;;5034258;28;20184;-66
2021/07/23 03:29:26;;;;;;;8.97;7.40;;;15.60;99.90;;;;;;5035941;28;20534;-65
2021/07/23 03:31:52;;;;;;;8.53;5.83;;;15.60;99.90;;;;;;5036122;28;20531;-65
2021/07/23 03:34:18;;;;;;;9.37;7.00;;;15.60;99.90;;;;;;5036422;28;20277;-65
2021/07/23 03:36:43;;;;;;;10.87;8.23;;;15.50;99.90;;;;;;5035573;28;20249;-66
2021/07/23 03:39:09;;;;;;;11.97;7.03;;;15.50;99.90;;;;;;5035637;28;20202;-65
2021/07/23 03:41:34;;;;;;;7.47;6.40;;;15.40;99.90;;;;;;5031053;28;20178;-65
2021/07/23 03:44:00;;;;;;;8.20;7.37;;;15.40;99.90;;;;;;5016123;28;20173;-66
2021/07/23 03:46:25;;;;;;;8.07;6.47;;;15.40;99.90;;;;;;5015846;28;20629;-65
2021/07/23 03:48:53;;;;;;;15.93;9.20;;;15.40;99.90;;;;;;5015152;28;20753;-66
2021/07/23 03:51:19;;;;;;;8.97;8.07;;;15.40;99.90;;;;;;5019743;28;20232;-66
2021/07/23 03:53:45;;;;;;;10.13;7.03;;;15.30;99.90;;;;;;5035589;28;20420;-66
2021/07/23 03:56:10;;;;;;;9.47;8.13;;;15.40;99.90;;;;;;5035590;28;20403;-65
2021/07/23 03:58:36;;;;;;;9.70;8.20;;;15.40;99.90;;;;;;5034942;28;20340;-65
2021/07/23 04:01:05;;;;;;;10.17;7.60;;;15.40;99.90;;;;;;5035089;28;20451;-65
2021/07/23 04:03:33;;;;;;;11.07;7.90;;;15.30;99.90;;;;;;5034935;28;20172;-65
2021/07/23 04:05:59;;;;;;;9.00;6.63;;;15.30;99.90;;;;;;5030450;28;20935;-66
2021/07/23 04:08:24;;;;;;;7.20;6.47;;;15.40;99.90;;;;;;5015136;28;20867;-65
2021/07/23 04:10:50;;;;;;;7.93;6.97;;;15.40;99.90;;;;;;5015633;28;20415;-65
2021/07/23 04:13:16;;;;;;;8.33;7.53;;;15.40;99.90;;;;;;5015587;28;20171;-65
2021/07/23 04:15:41;;;;;;;9.97;7.80;;;15.40;99.90;;;;;;5015405;28;20174;-65
2021/07/23 04:18:07;;;;;;;9.93;7.27;;;15.40;99.90;;;;;;5033328;28;20206;-65
2021/07/23 04:20:33;;;;;;;9.50;7.20;;;15.40;99.90;;;;;;5035114;28;20227;-65
2021/07/23 04:22:59;;;;;;;9.03;7.30;;;15.50;99.90;;;;;;5035318;28;20177;-64
2021/07/23 04:25:24;;;;;;;9.80;7.63;;;15.50;99.90;;;;;;5035163;28;20408;-64
2021/07/23 04:27:50;;;;;;;9.03;8.10;;;15.50;99.90;;;;;;5034417;28;20232;-65
2021/07/23 04:30:17;;;;;;;8.63;7.73;;;15.60;99.90;;;;;;5034703;28;20549;-65
2021/07/23 04:32:46;;;;;;;9.07;8.27;;;15.70;99.90;;;;;;5017417;28;20190;-64
2021/07/23 04:35:12;;;;;;;7.03;5.63;;;15.70;99.90;;;;;;5015242;28;20410;-65
2021/07/23 04:37:38;;;;;;;8.70;7.73;;;15.80;99.90;;;;;;5013239;28;20429;-64
2021/07/23 04:40:06;;;;;;;11.13;8.10;;;15.90;99.90;;;;;;5014833;28;20804;-64
2021/07/23 04:42:34;;;;;;;8.87;7.50;;;15.90;99.90;;;;;;5014994;28;20499;-65
2021/07/23 04:45:03;;;;;;;10.23;7.10;;;16.00;99.90;;;;;;5014619;28;20417;-65
2021/07/23 04:47:28;;;;;;;7.83;6.93;;;16.10;99.90;;;;;;5031367;28;20913;-65
2021/07/23 04:49:54;;;;;;;9.37;8.33;;;16.20;99.90;;;;;;5034430;28;20566;-65
2021/07/23 04:52:19;;;;;;;8.90;7.73;;;16.30;99.90;;;;;;5034430;28;20304;-65
2021/07/23 04:54:45;;;;;;;11.37;7.60;;;16.30;99.90;;;;;;5034608;28;20190;-65
2021/07/23 04:57:14;;;;;;;12.30;8.23;;;16.40;99.90;;;;;;5034003;28;20178;-65
2021/07/23 04:59:40;;;;;;;8.63;7.60;;;16.40;99.90;;;;;;5034115;28;20205;-65
2021/07/23 05:02:05;;;;;;;12.80;7.20;;;16.50;99.90;;;;;;5017922;28;20425;-65
2021/07/23 05:04:34;;;;;;;13.83;7.60;;;16.60;99.90;;;;;;5014588;28;20622;-65
2021/07/23 05:07:00;;;;;;;8.03;7.20;;;16.70;99.90;;;;;;5033346;28;20209;-66
2021/07/23 05:09:25;;;;;;;11.57;8.33;;;16.90;99.90;;;;;;5034014;28;20433;-65
2021/07/23 05:11:51;;;;;;;9.07;7.73;;;17.00;99.90;;;;;;5025623;28;20519;-66
2021/07/23 05:14:17;;;;;;;8.70;7.80;;;17.20;99.90;;;;;;5013869;28;20182;-66
2021/07/23 05:16:43;;;;;;;8.83;7.60;;;17.30;99.90;;;;;;5013926;28;20168;-66
2021/07/23 05:19:11;;;;;;;11.27;7.07;;;17.40;99.90;;;;;;5014081;28;20558;-64
2021/07/23 05:21:37;;;;;;;10.87;7.40;;;17.40;99.90;;;;;;5014463;28;20172;-68
2021/07/23 05:24:04;;;;;;;10.10;8.50;;;17.50;99.90;;;;;;5012729;28;20418;-66
2021/07/23 05:26:36;;;;;;;8.93;6.03;;;17.70;99.90;;;;;;5013748;28;20483;-66
2021/07/23 05:29:06;;;;;;;8.63;7.07;;;17.80;99.90;;;;;;5013970;28;20837;-66
2021/07/23 05:31:32;;;;;;;8.67;6.53;;;17.90;99.90;;;;;;5014193;28;20416;-66
2021/07/23 05:33:57;;;;;;;10.30;6.53;;;18.10;99.90;;;;;;5014049;28;20410;-67
2021/07/23 05:36:27;;;;;;;8.20;6.77;;;18.20;99.90;;;;;;5013736;28;20175;-66
2021/07/23 05:38:53;;;;;;;7.13;6.40;;;18.40;99.90;;;;;;5013390;28;20214;-65
2021/07/23 05:41:19;;;;;;;10.00;7.37;;;18.70;99.90;;;;;;5020144;28;20415;-66
2021/07/23 05:43:45;;;;;;;7.97;6.43;;;18.90;99.90;;;;;;5032176;28;20539;-66
2021/07/23 05:46:10;;;;;;;11.30;8.23;;;19.10;99.90;;;;;;5032327;28;20307;-65
2021/07/23 05:48:37;;;;;;;10.20;8.00;;;19.60;99.90;;;;;;5033073;28;20186;-63
2021/07/23 05:51:04;;;;;;;9.53;6.90;;;19.90;99.90;;;;;;5033237;28;20174;-66
2021/07/23 05:53:30;;;;;;;12.67;6.97;;;20.20;99.90;;;;;;5033360;28;20420;-65
2021/07/23 05:55:58;;;;;;;10.97;7.67;;;20.50;99.90;;;;;;5001998;28;20445;-65
2021/07/23 05:58:28;;;;;;;10.60;7.87;;;20.80;99.90;;;;;;5003560;28;20437;-64
2021/07/23 06:00:55;;;;;;;7.70;6.50;;;20.90;99.90;;;;;;5004198;28;20411;-66
2021/07/23 06:03:21;;;;;;;8.07;7.27;;;21.10;99.90;;;;;;5003708;28;20410;-65
2021/07/23 06:05:47;;;;;;;13.00;7.03;;;21.00;99.90;;;;;;5005499;28;20420;-65
2021/07/23 06:08:13;;;;;;;10.63;7.70;;;21.00;99.90;;;;;;5010415;28;20462;-66
2021/07/23 06:10:39;;;;;;;8.57;7.20;;;20.90;99.90;;;;;;5013305;28;20887;-65
2021/07/23 06:13:05;;;;;;;11.37;7.53;;;21.00;99.90;;;;;;5013414;28;20444;-65
2021/07/23 06:15:31;;;;;;;9.03;7.67;;;21.10;99.90;;;;;;5013366;28;20198;-65
2021/07/23 06:17:58;;;;;;;8.87;6.20;;;21.10;99.90;;;;;;5012888;28;20421;-65
2021/07/23 06:20:23;;;;;;;8.17;6.50;;;21.10;99.90;;;;;;5014020;28;20210;-66
2021/07/23 06:22:54;;;;;;;9.20;7.27;;;21.20;99.90;;;;;;5010519;28;20414;-65
2021/07/23 06:25:20;;;;;;;9.63;6.33;;;21.10;99.90;;;;;;5010063;28;20172;-66
2021/07/23 06:27:47;;;;;;;9.10;7.40;;;21.00;99.90;;;;;;5007187;28;20431;-64
2021/07/23 06:30:13;;;;;;;13.30;7.03;;;21.00;99.90;;;;;;5004333;28;20220;-64
2021/07/23 06:32:39;;;;;;;9.37;7.60;;;20.90;99.90;;;;;;5007110;28;20865;-64
2021/07/23 06:35:05;;;;;;;10.23;7.97;;;21.00;99.90;;;;;;5027240;28;20456;-64
2021/07/23 06:37:31;;;;;;;8.20;6.37;;;21.20;99.90;;;;;;5036457;28;20257;-66
2021/07/23 06:39:57;;;;;;;10.57;8.13;;;21.30;99.90;;;;;;5036913;28;20919;-65
2021/07/23 06:42:24;;;;;;;9.97;6.73;;;21.30;99.90;;;;;;5035565;28;20225;-66
2021/07/23 06:44:50;;;;;;;8.77;6.60;;;21.30;99.90;;;;;;5036923;28;20439;-66
2021/07/23 06:47:16;;;;;;;12.30;7.43;;;21.30;99.90;;;;;;5036586;28;20405;-65
2021/07/23 06:49:41;;;;;;;8.50;7.63;;;21.40;99.90;;;;;;5036031;28;20440;-67
2021/07/23 06:52:07;;;;;;;16.70;7.87;;;21.50;99.90;;;;;;5036789;28;20405;-66
2021/07/23 06:54:34;;;;;;;10.90;8.63;;;21.60;99.90;;;;;;5036674;28;20406;-66
2021/07/23 06:57:04;;;;;;;10.80;7.77;;;21.50;99.90;;;;;;5036166;28;20475;-65
2021/07/23 06:59:33;;;;;;;11.13;7.97;;;21.50;99.90;;;;;;5036377;28;20497;-68
2021/07/23 07:02:00;;;;;;;7.83;5.87;;;21.60;99.90;;;;;;5018667;28;20428;-62
2021/07/23 07:04:26;;;;;;;8.20;7.30;;;21.90;99.90;;;;;;5023736;28;20503;-62
2021/07/23 07:06:55;;;;;;;9.83;7.70;;;22.00;99.90;;;;;;5015559;28;20433;-64
2021/07/23 07:09:25;;;;;;;23.33;14.13;;;22.10;99.90;;;;;;5016672;28;20471;-64
2021/07/23 07:11:51;;;;;;;9.87;6.87;;;22.30;99.90;;;;;;5016601;28;20468;-65
2021/07/23 07:14:17;;;;;;;9.10;7.53;;;22.50;99.90;;;;;;5016395;28;20496;-62
2021/07/23 07:16:43;;;;;;;9.50;7.63;;;22.70;99.90;;;;;;5016051;28;20417;-68
2021/07/23 07:19:08;;;;;;;11.23;8.60;;;22.90;99.90;;;;;;5016043;28;20215;-69
2021/07/23 07:21:35;;;;;;;7.90;6.83;;;22.90;99.90;;;;;;5016690;28;20430;-64
2021/07/23 07:24:01;;;;;;;16.60;8.07;;;22.90;99.90;;;;;;5016301;28;20168;-64
2021/07/23 07:26:28;;;;;;;11.03;7.83;;;22.90;99.90;;;;;;5016422;28;20413;-64
2021/07/23 07:28:54;;;;;;;10.60;7.30;;;22.90;99.90;;;;;;5015827;28;20512;-64
2021/07/23 07:31:20;;;;;;;10.30;7.77;;;22.90;99.90;;;;;;5016300;28;20437;-65
2021/07/23 07:33:46;;;;;;;9.43;8.20;;;23.10;99.90;;;;;;5016740;28;20444;-64
2021/07/23 07:36:17;;;;;;;9.37;7.40;;;23.20;99.90;;;;;;5014829;28;20430;-65
2021/07/23 07:38:46;;;;;;;8.30;7.10;;;23.40;99.90;;;;;;5020574;28;20205;-63
2021/07/23 07:41:19;;;;;;;10.50;6.97;;;23.80;99.90;;;;;;5035758;28;20870;-63
2021/07/23 07:43:45;;;;;;;10.17;6.13;;;24.50;99.90;;;;;;5035923;28;20423;-66
2021/07/23 07:46:11;;;;;;;9.70;8.17;;;25.10;99.90;;;;;;5035621;28;20387;-64
2021/07/23 07:48:37;;;;;;;6.83;6.13;;;25.80;98.80;;;;;;5031847;28;20929;-67
2021/07/23 07:51:05;;;;;;;9.20;6.67;;;26.50;97.50;;;;;;5015811;28;20398;-64
2021/07/23 07:53:31;;;;;;;14.63;12.10;;;27.40;96.70;;;;;;5016780;28;20622;-64
2021/07/23 07:55:57;;;;;;;7.20;6.47;;;28.40;95.00;;;;;;5007029;28;20524;-64
2021/07/23 07:58:22;;;;;;;8.67;7.77;;;29.50;92.90;;;;;;4999417;28;20195;-64
2021/07/23 08:00:48;;;;;;;7.73;7.03;;;30.20;91.00;;;;;;4996289;28;20172;-64
2021/07/23 08:03:14;;;;;;;10.20;8.50;;;30.90;88.70;;;;;;5005818;28;20233;-66
2021/07/23 08:05:39;;;;;;;8.27;7.50;;;31.60;86.80;;;;;;5015563;28;20182;-66
2021/07/23 08:08:09;;;;;;;8.60;7.20;;;32.40;83.70;;;;;;5017517;28;20233;-65
2021/07/23 08:10:36;;;;;;;12.10;7.47;;;33.40;80.40;;;;;;5035348;28;20173;-69
2021/07/23 08:13:07;;;;;;;7.10;6.50;;;34.00;77.80;;;;;;5035423;28;20484;-68
2021/07/23 08:15:38;;;;;;;12.83;7.17;;;34.60;75.20;;;;;;5035962;28;20736;-69
2021/07/23 08:18:08;;;;;;;7.50;6.80;;;35.40;71.00;;;;;;5015532;28;21287;-67
2021/07/23 08:20:35;;;;;;;8.87;8.07;;;35.90;67.90;;;;;;5014355;28;20549;-65
2021/07/23 08:23:03;;;;;;;8.80;8.00;;;36.00;66.60;;;;;;5015770;28;20402;-67
2021/07/23 08:25:29;;;;;;;10.10;7.30;;;36.10;65.40;;;;;;5014036;28;20429;-69
2021/07/23 08:27:57;;;;;;;7.43;6.80;;;36.10;64.50;;;;;;5014826;28;20935;-69
2021/07/23 08:30:32;;;;;;;8.70;7.90;;;36.30;63.10;;;;;;5015634;28;20542;-68
2021/07/23 08:33:00;;;;;;;7.70;7.00;;;36.90;61.30;;;;;;5034058;28;20444;-68
2021/07/23 08:35:26;;;;;;;7.93;7.13;;;37.40;59.60;;;;;;5033805;28;20412;-67
2021/07/23 08:37:55;;;;;;;7.33;6.63;;;37.80;58.80;;;;;;5034559;28;20958;-66
2021/07/23 08:40:21;;;;;;;7.37;6.77;;;37.80;56.50;;;;;;5023016;28;20258;-67
2021/07/23 08:42:47;;;;;;;6.83;6.33;;;37.90;55.90;;;;;;5002868;28;20497;-68
2021/07/23 08:45:15;;;;;;;7.03;6.40;;;37.90;55.40;;;;;;5004851;28;20182;-68
2021/07/23 08:47:44;;;;;;;7.20;6.60;;;37.30;55.40;;;;;;5002775;28;20546;-68
2021/07/23 08:50:10;;;;;;;7.30;6.70;;;37.00;56.20;;;;;;5001250;28;20463;-68
2021/07/23 08:52:46;;;;;;;7.27;6.67;;;36.80;56.00;;;;;;5004225;28;20406;-68
2021/07/23 08:55:19;;;;;;;7.37;6.77;;;36.20;55.30;;;;;;5007462;28;20175;-67
2021/07/23 08:57:46;;;;;;;6.70;6.00;;;36.00;57.10;;;;;;5002433;28;20489;-68
2021/07/23 09:00:21;;;;;;;6.97;6.37;;;36.30;56.40;;;;;;5004532;28;20536;-68
2021/07/23 09:02:53;;;;;;;7.33;6.73;;;36.90;56.20;;;;;;5002851;28;20514;-66
2021/07/23 09:05:23;;;;;;;6.80;6.30;;;37.70;55.60;;;;;;5004250;28;20432;-66
2021/07/23 09:07:49;;;;;;;7.67;7.00;;;37.70;53.80;;;;;;5006516;28;20434;-66
2021/07/23 09:10:25;;;;;;;6.93;6.30;;;37.80;54.60;;;;;;5005947;28;20466;-67
2021/07/23 09:12:57;;;;;;;8.33;7.43;;;37.80;53.30;;;;;;5002302;28;20545;-67
2021/07/23 09:15:25;;;;;;;6.60;6.10;;;37.80;53.20;;;;;;4994767;28;20419;-66
2021/07/23 09:17:51;;;;;;;6.50;6.10;;;38.20;53.10;;;;;;5028575;28;20449;-67
2021/07/23 09:20:23;;;;;;;7.33;6.73;;;38.40;52.10;;;;;;5014783;28;20808;-71
2021/07/23 09:22:51;;;;;;;8.33;7.53;;;38.90;51.80;;;;;;5014337;28;20453;-67
2021/07/23 09:25:44;;;;;;;7.17;6.47;;;39.00;52.00;;;;;;5012945;28;20425;-66
2021/07/23 09:28:20;;;;;;;7.70;7.00;;;38.60;52.60;;;;;;5013567;28;20953;-67
2021/07/23 09:30:47;;;;;;;9.13;8.43;;;38.60;52.30;;;;;;5014949;28;20426;-66
2021/07/23 09:33:22;;;;;;;7.43;6.40;;;38.60;52.10;;;;;;5033804;28;20404;-66
2021/07/23 09:35:59;;;;;;;8.70;7.20;;;38.90;51.20;;;;;;5033660;28;20455;-66
2021/07/23 09:38:36;;;;;;;6.37;5.97;;;39.00;50.10;;;;;;5033190;28;20417;-66
2021/07/23 09:41:03;;;;;;;7.43;6.83;;;39.10;50.50;;;;;;5033802;28;20384;-66
2021/07/23 09:43:29;;;;;;;7.67;6.97;;;39.40;51.60;;;;;;5026465;28;20405;-67
2021/07/23 09:45:55;;;;;;;7.33;6.73;;;39.70;51.40;;;;;;5018252;28;20471;-66
2021/07/23 09:48:21;;;;;;;6.77;6.37;;;39.80;50.60;;;;;;5033022;28;20425;-66
2021/07/23 09:50:46;;;;;;;6.90;6.40;;;39.90;50.10;;;;;;5014916;28;20188;-67
2021/07/23 09:53:15;;;;;;;7.57;6.97;;;40.20;49.70;;;;;;5013908;28;20175;-66
2021/07/23 09:55:46;;;;;;;7.97;7.20;;;40.40;49.20;;;;;;5013886;28;20185;-66
2021/07/23 09:58:24;;;;;;;7.83;7.30;;;40.70;47.90;;;;;;5013454;28;20780;-66
2021/07/23 10:01:01;;;;;;;6.20;5.80;;;40.90;47.00;;;;;;5013062;28;20471;-67
2021/07/23 10:03:27;;;;;;;6.40;6.00;;;40.90;46.00;;;;;;5013760;28;20850;-67
2021/07/23 10:06:05;;;;;;;7.67;7.07;;;40.60;45.70;;;;;;5013802;28;20760;-65
2021/07/23 10:08:40;;;;;;;6.87;6.37;;;40.50;45.30;;;;;;5013251;28;20441;-65
2021/07/23 10:11:09;;;;;;;6.47;5.90;;;40.10;46.30;;;;;;5013607;28;20467;-65
2021/07/23 10:13:38;;;;;;;6.00;5.60;;;40.40;46.60;;;;;;5013682;28;20854;-66
2021/07/23 10:16:10;;;;;;;6.97;6.47;;;40.50;44.90;;;;;;5018820;28;20428;-64
2021/07/23 10:18:38;;;;;;;7.10;6.53;;;40.50;44.50;;;;;;5016935;28;20447;-63
2021/07/23 10:21:05;;;;;;;6.50;5.63;;;40.20;44.90;;;;;;5033216;28;20413;-63
2021/07/23 10:23:32;;;;;;;7.23;6.73;;;40.20;44.90;;;;;;5021848;28;20413;-65
2021/07/23 10:25:59;;;;;;;6.13;5.53;;;39.70;44.80;;;;;;5013333;28;20401;-62
2021/07/23 10:28:43;;;;;;;6.33;5.83;;;39.40;45.30;;;;;;5012643;28;20993;-65
2021/07/23 10:31:32;;;;;;;6.77;6.27;;;39.40;45.10;;;;;;5021585;28;20432;-63
2021/07/23 10:34:00;;;;;;;7.67;6.97;;;39.20;45.50;;;;;;5032411;28;20919;-62
2021/07/23 10:36:25;;;;;;;6.77;6.23;;;38.80;46.50;;;;;;5033166;28;20440;-61
2021/07/23 10:39:06;;;;;;;6.50;5.90;;;38.50;47.00;;;;;;5032521;28;20424;-63
2021/07/23 10:41:35;;;;;;;6.70;6.10;;;38.20;47.60;;;;;;5033020;28;20181;-63
2021/07/23 10:44:02;;;;;;;7.60;6.97;;;38.00;48.50;;;;;;5033081;28;20425;-61
2021/07/23 10:46:43;;;;;;;6.90;6.40;;;37.80;48.50;;;;;;5032240;28;20429;-65
2021/07/23 10:49:33;;;;;;;7.67;6.97;;;37.60;48.20;;;;;;5032721;28;20495;-67
2021/07/23 10:52:00;;;;;;;7.43;6.83;;;37.00;49.00;;;;;;5032174;28;20409;-67
2021/07/23 10:54:28;;;;;;;6.80;6.20;;;36.90;50.10;;;;;;5032692;28;20409;-65
2021/07/23 10:59:42;;;;;;;8.37;7.67;;;36.80;51.70;;;;;;5032984;28;20501;-65
2021/07/23 11:02:11;;;;;;;7.43;6.73;;;36.80;50.70;;;;;;5032804;28;20431;-64
2021/07/23 11:04:40;;;;;;;6.87;6.27;;;36.50;51.90;;;;;;5032468;28;20409;-65
2021/07/23 11:07:07;;;;;;;6.70;6.10;;;36.40;51.00;;;;;;5019751;28;20392;-65
2021/07/23 11:09:36;;;;;;;6.90;6.20;;;36.20;50.70;;;;;;5012908;28;20500;-64
2021/07/23 11:12:23;;;;;;;7.33;6.43;;;36.10;50.40;;;;;;5024994;28;20387;-66
2021/07/23 11:15:03;;;;;;;7.70;6.90;;;35.60;51.00;;;;;;5020037;28;20432;-63
2021/07/23 11:17:30;;;;;;;6.47;5.87;;;34.50;52.20;;;;;;5035051;28;20405;-64
2021/07/23 11:19:59;;;;;;;9.00;7.83;;;33.60;53.80;;;;;;5035016;28;20797;-64
2021/07/23 11:22:29;;;;;;;8.57;6.40;;;32.70;55.60;;;;;;5034997;28;20387;-64
2021/07/23 11:25:06;;;;;;;8.07;6.90;;;31.90;56.30;;;;;;5035031;28;20413;-63
2021/07/23 11:27:34;;;;;;;7.70;6.93;;;31.10;58.70;;;;;;5033052;28;20421;-66
2021/07/23 11:30:11;;;;;;;7.60;6.50;;;30.50;59.80;;;;;;5034183;28;20525;-67
2021/07/23 11:33:00;;;;;;;7.60;5.67;;;30.00;60.30;;;;;;5035447;28;20737;-66
2021/07/23 11:35:27;;;;;;;6.97;6.27;;;29.60;62.70;;;;;;5035780;28;20484;-65
2021/07/23 11:37:55;;;;;;;6.97;6.27;;;29.40;64.10;;;;;;5035375;28;20433;-65
2021/07/23 11:40:22;;;;;;;6.57;5.97;;;29.30;63.60;;;;;;5036037;28;20531;-64
2021/07/23 11:42:51;;;;;;;6.47;5.70;;;29.10;61.90;;;;;;5035734;28;20892;-64
2021/07/23 11:45:21;;;;;;;6.50;5.80;;;29.10;62.40;;;;;;5023783;28;20820;-65
2021/07/23 11:47:49;;;;;;;5.47;4.97;;;29.00;63.40;;;;;;5015701;28;20461;-65
2021/07/23 11:50:17;;;;;;;7.07;6.00;;;28.90;61.80;;;;;;5016232;28;20467;-66
2021/07/23 11:52:45;;;;;;;7.40;6.10;;;28.80;64.40;;;;;;5014655;28;20415;-65
2021/07/23 11:55:13;;;;;;;6.40;5.80;;;28.70;63.50;;;;;;5016113;28;20420;-67
2021/07/23 11:57:45;;;;;;;6.83;6.13;;;28.70;64.00;;;;;;5014608;28;20428;-68
2021/07/23 12:00:17;;;;;;;6.87;6.27;;;28.60;64.20;;;;;;5014956;28;20439;-67
2021/07/23 12:02:50;;;;;;;6.50;5.30;;;28.40;65.70;;;;;;5015990;28;20407;-65
2021/07/23 12:05:16;;;;;;;7.73;6.30;;;28.40;65.90;;;;;;5014909;28;20422;-65
2021/07/23 12:07:46;;;;;;;7.60;6.20;;;28.30;66.80;;;;;;5015030;28;20469;-65
2021/07/23 12:10:16;;;;;;;6.63;5.93;;;28.30;66.40;;;;;;5015442;28;20574;-64
2021/07/23 12:12:43;;;;;;;6.93;5.70;;;28.30;66.50;;;;;;5014129;28;20386;-65
2021/07/23 12:15:11;;;;;;;6.23;5.60;;;28.40;65.10;;;;;;5029064;28;20418;-65
2021/07/23 12:17:44;;;;;;;5.50;5.00;;;28.30;65.70;;;;;;5019786;28;20474;-65
2021/07/23 12:20:13;;;;;;;6.57;5.97;;;28.40;63.70;;;;;;5015549;28;20416;-66
2021/07/23 12:22:40;;;;;;;7.40;6.10;;;28.30;64.70;;;;;;5013503;28;20403;-66
2021/07/23 12:25:18;;;;;;;6.33;5.40;;;28.20;65.40;;;;;;5015668;28;20455;-65
2021/07/23 12:27:44;;;;;;;6.10;5.50;;;28.30;66.30;;;;;;5014713;28;20381;-66
2021/07/23 12:30:11;;;;;;;7.90;5.90;;;28.30;65.90;;;;;;5031032;28;20525;-65
2021/07/23 12:32:38;;;;;;;7.60;5.80;;;28.30;65.80;;;;;;5034607;28;20408;-65
2021/07/23 12:35:04;;;;;;;6.70;6.00;;;28.30;65.10;;;;;;5035017;28;20417;-65
2021/07/23 12:37:30;;;;;;;6.67;4.90;;;28.20;65.20;;;;;;5034510;28;20408;-65
2021/07/23 12:39:58;;;;;;;7.00;6.33;;;28.20;64.90;;;;;;5034763;28;20404;-65
2021/07/23 12:42:26;;;;;;;5.83;5.30;;;28.20;65.60;;;;;;5034414;28;20417;-65
2021/07/23 12:44:52;;;;;;;7.33;6.67;;;28.30;65.70;;;;;;5032912;28;20441;-65
2021/07/23 12:47:21;;;;;;;7.20;5.80;;;28.30;67.00;;;;;;5032947;28;20390;-64
2021/07/23 12:49:49;;;;;;;7.40;5.63;;;28.20;66.50;;;;;;5034097;28;20979;-64
2021/07/23 12:52:14;;;;;;;5.40;4.90;;;28.30;66.20;;;;;;5034543;28;20387;-64